Thunder radar more information blitzortung!


Löydät sääaseman tiedot myös:

European Weather Network

Finland Weather Exchange

Weather Underground

AWEKAS



Weather Underground säähistoriasivu

Päivittäin yhteenveto Huhtikuu 26, 2017 Yksiköt:  Englantilaiset    Metriset   Molemmat
« Edellinen Päivä
Seuraava Päivä »
Päivittäin Viikoittain Kuukausittain Vuosittain Mukautettu
  Korkea: Matala: Keskiarvo:
Lämpötila: TemperatureC °F 0.2 °F 0.4 °F
Kastepiste: DewpointC °F -0.3 °F -0 °F
Kosteus: Humidity % 96 % 96 %
Tuulen nopeus: WindSpeedKMH mph 0.0 mph 5.6 mph
Tuulenpuuska: WindSpeedGustKMH mph - -
Tuuli:- - NW
Ilmanpaine: PressurehPa in 990.7 in -
Sade: 4.8 in    
Historical Graphs
 
 
Taulukkotiedot Huhtikuu 26, 2017
Aika Lämpötila Kastepiste Ilmanpaine Tuuli Tuulen nopeus Tuulenpuuska Kosteus Sademäärä (tunneittain)
TemperatureC °F DewpointC °F PressurehPa in Calm     Humidity % HourlyPrecipMM in
00:00 0.3 °F -0.2 °F 998.5 in Calm     96 % 0.0 in
00:15 0.3 °F -0.2 °F 998.5 in Calm     96 % 0.0 in
00:30 0.3 °F -0.2 °F 998.2 in Calm     96 % 0.0 in
00:45 0.3 °F -0.1 °F 998.2 in Calm     97 % 0.0 in
01:00 0.3 °F -0.1 °F 997.9 in Calm     97 % 0.0 in
01:15 0.4 °F 0.0 °F 997.9 in Calm     97 % 0.0 in
01:30 0.4 °F 0.0 °F 997.5 in Calm     97 % 0.0 in
01:45 0.4 °F 0.0 °F 997.2 in Calm     97 % 0.0 in
02:00 0.4 °F 0.0 °F 997.2 in Calm     97 % 0.0 in
02:15 0.4 °F 0.0 °F 996.8 in Calm     97 % 0.0 in
02:30 0.4 °F 0.0 °F 996.5 in Calm     97 % 0.0 in
02:45 0.4 °F 0.0 °F 996.5 in Calm     97 % 0.0 in
03:00 0.4 °F 0.0 °F 996.2 in Calm     97 % 0.0 in
03:15 0.4 °F 0.0 °F 995.8 in Calm     97 % 0.0 in
03:30 0.4 °F 0.0 °F 995.8 in Calm     97 % 0.0 in
03:45 0.4 °F 0.0 °F 995.5 in Calm     97 % 0.0 in
04:00 0.4 °F 0.0 °F 995.1 in Calm     97 % 0.0 in
04:15 0.4 °F 0.0 °F 995.1 in Calm     97 % 0.0 in
04:30 0.4 °F 0.0 °F 994.8 in Calm     97 % 0.0 in
04:45 0.4 °F 0.0 °F 994.5 in Calm     97 % 0.0 in
05:00 0.4 °F 0.0 °F 994.1 in Calm     97 % 0.0 in
05:15 0.4 °F 0.0 °F 994.1 in Calm     97 % 0.0 in
05:30 0.4 °F 0.0 °F 993.8 in Calm     97 % 0.0 in
05:45 0.4 °F 0.0 °F 993.5 in Calm     97 % 0.0 in
06:00 0.4 °F 0.0 °F 993.5 in NNW 1.6 mph 6.4 mph 97 % 0.0 in
06:15 0.4 °F 0.0 °F 993.1 in NW 1.6 mph 6.4 mph 97 % 0.0 in
06:30 0.4 °F 0.0 °F 992.8 in NW 1.6 mph 4.8 mph 97 % 0.0 in
06:45 0.4 °F 0.0 °F 992.8 in NW 3.2 mph 8.0 mph 97 % 0.0 in
07:00 0.4 °F 0.0 °F 992.4 in NW 3.2 mph 6.4 mph 97 % 0.0 in
07:15 0.4 °F 0.0 °F 992.1 in NW 3.2 mph 11.3 mph 97 % 0.0 in
07:30 0.4 °F 0.0 °F 992.1 in NW 3.2 mph 8.0 mph 97 % 0.0 in
07:45 0.4 °F 0.0 °F 991.8 in NW 4.8 mph 12.9 mph 97 % 0.0 in
08:00 0.4 °F 0.0 °F 991.8 in NW 3.2 mph 9.7 mph 97 % 0.0 in
08:15 0.4 °F 0.0 °F 991.4 in NW 4.8 mph 12.9 mph 97 % 0.0 in
08:30 0.4 °F 0.0 °F 991.4 in NW 4.8 mph 9.7 mph 97 % 0.0 in
08:45 0.4 °F 0.0 °F 991.4 in NW 3.2 mph 9.7 mph 97 % 0.0 in
09:00 0.5 °F 0.1 °F 991.4 in NNW 4.8 mph 9.7 mph 97 % 0.0 in
09:15 0.5 °F 0.1 °F 991.1 in NNW 4.8 mph 11.3 mph 97 % 0.0 in
09:30 0.5 °F 0.1 °F 991.1 in NNW 4.8 mph 9.7 mph 97 % 0.0 in
09:45 0.5 °F 0.1 °F 991.1 in NW 6.4 mph 16.1 mph 97 % 0.0 in
10:00 0.5 °F 0.1 °F 991.1 in NNW 6.4 mph 14.5 mph 97 % 0.0 in
10:15 0.5 °F 0.1 °F 991.1 in NNW 6.4 mph 16.1 mph 97 % 0.0 in
10:30 0.4 °F 0.0 °F 991.1 in NNW 6.4 mph 20.9 mph 97 % 0.3 in
10:45 0.4 °F 0.0 °F 991.1 in NW 8.0 mph 19.3 mph 97 % 0.3 in
11:00 0.4 °F 0.0 °F 991.1 in NW 9.7 mph 20.9 mph 97 % 0.3 in
11:15 0.4 °F 0.0 °F 991.1 in NW 9.7 mph 22.5 mph 97 % 0.3 in
11:30 0.4 °F -0.1 °F 991.1 in NW 9.7 mph 27.4 mph 96 % 0.0 in
11:45 0.4 °F -0.2 °F 990.7 in NW 11.3 mph 25.7 mph 96 % 0.0 in
12:00 0.4 °F -0.2 °F 991.1 in NW 9.7 mph 27.4 mph 96 % 0.0 in
12:15 0.3 °F -0.2 °F 991.1 in NW 11.3 mph 27.4 mph 96 % 0.0 in
12:30 0.3 °F -0.2 °F 991.1 in NW 9.7 mph 22.5 mph 96 % 0.0 in
12:45 0.3 °F -0.3 °F 991.1 in NW 11.3 mph 20.9 mph 96 % 0.0 in
13:00 0.3 °F -0.3 °F 991.4 in NW 11.3 mph 25.7 mph 96 % 0.3 in
13:15 0.3 °F -0.3 °F 991.4 in NW 9.7 mph 25.7 mph 96 % 0.3 in
13:30 0.2 °F -0.3 °F 991.4 in NW 6.4 mph 20.9 mph 96 % 0.5 in
13:45 0.3 °F -0.3 °F 991.8 in NW 11.3 mph 27.4 mph 96 % 0.5 in
14:00 0.3 °F -0.3 °F 991.8 in NW 9.7 mph 20.9 mph 96 % 0.5 in
14:15 0.3 °F -0.3 °F 992.1 in NW 12.9 mph 30.6 mph 96 % 0.5 in
14:30 0.3 °F -0.3 °F 992.1 in NW 9.7 mph 25.7 mph 96 % 0.5 in
14:45 0.3 °F -0.1 °F 992.4 in NW 9.7 mph 24.1 mph 97 % 0.5 in
15:00 0.3 °F -0.2 °F 992.4 in NW 11.3 mph 29.0 mph 96 % 0.5 in
15:15 0.4 °F -0.2 °F 992.8 in NW 11.3 mph 25.7 mph 96 % 0.5 in
15:30 0.4 °F -0.2 °F 993.1 in NW 11.3 mph 22.5 mph 96 % 0.5 in
15:45 0.4 °F 0.0 °F 993.1 in NW 11.3 mph 29.0 mph 97 % 0.8 in
16:00 0.4 °F 0.0 °F 993.5 in NW 11.3 mph 25.7 mph 97 % 0.8 in
16:15 0.4 °F 0.0 °F 993.5 in NW 9.7 mph 20.9 mph 97 % 0.8 in
16:30 0.4 °F 0.0 °F 993.8 in NW 11.3 mph 27.4 mph 97 % 0.8 in
16:45 0.4 °F 0.0 °F 993.8 in NW 11.3 mph 25.7 mph 97 % 0.8 in
17:00 0.4 °F 0.0 °F 994.1 in NW 11.3 mph 24.1 mph 97 % 0.8 in
17:15 0.4 °F 0.0 °F 994.1 in NW 11.3 mph 25.7 mph 97 % 0.8 in
17:30 0.4 °F 0.0 °F 994.5 in NW 11.3 mph 25.7 mph 97 % 0.5 in
17:45 0.4 °F 0.0 °F 994.8 in NW 9.7 mph 25.7 mph 97 % 0.5 in
18:00 0.4 °F 0.0 °F 995.1 in NW 11.3 mph 25.7 mph 97 % 0.5 in
18:15 0.4 °F 0.0 °F 995.1 in NW 9.7 mph 19.3 mph 97 % 0.5 in
18:30 0.4 °F 0.0 °F 995.5 in NW 6.4 mph 14.5 mph 97 % 0.5 in
18:45 0.4 °F 0.0 °F 995.5 in NW 6.4 mph 20.9 mph 97 % 0.5 in
19:00 0.4 °F 0.0 °F 995.8 in NW 4.8 mph 17.7 mph 97 % 0.5 in
19:15 0.4 °F 0.0 °F 996.2 in NW 6.4 mph 16.1 mph 97 % 0.5 in
19:30 0.4 °F 0.0 °F 996.2 in NW 4.8 mph 11.3 mph 97 % 0.3 in
19:45 0.4 °F 0.0 °F 996.5 in WNW 6.4 mph 14.5 mph 97 % 0.5 in
20:00 0.5 °F 0.1 °F 996.5 in WNW 6.4 mph 22.5 mph 97 % 0.3 in
20:15 0.5 °F 0.1 °F 996.5 in NW 6.4 mph 20.9 mph 97 % 0.5 in
20:30 0.5 °F 0.1 °F 996.8 in WNW 4.8 mph 11.3 mph 97 % 0.5 in
20:45 0.6 °F 0.1 °F 996.8 in NW 4.8 mph 17.7 mph 97 % 0.3 in
21:00 0.6 °F 0.1 °F 996.8 in NW 4.8 mph 16.1 mph 97 % 0.3 in
21:15 0.6 °F 0.1 °F 997.2 in NW 6.4 mph 20.9 mph 97 % 0.3 in
21:30 0.5 °F 0.1 °F 997.2 in NW 8.0 mph 20.9 mph 97 % 0.3 in
21:45 0.5 °F 0.1 °F 997.5 in NW 8.0 mph 24.1 mph 97 % 0.3 in
22:00 0.5 °F 0.1 °F 997.5 in WNW 4.8 mph 22.5 mph 97 % 0.3 in
22:15 0.6 °F 0.1 °F 997.9 in WNW 6.4 mph 22.5 mph 97 % 0.0 in
22:30 0.6 °F 0.1 °F 997.9 in NW 6.4 mph 20.9 mph 97 % 0.3 in
22:45 0.5 °F 0.1 °F 997.9 in WNW 8.0 mph 17.7 mph 97 % 0.3 in
23:00 0.5 °F 0.1 °F 998.2 in NW 8.0 mph 17.7 mph 97 % 0.3 in
23:15 0.6 °F 0.1 °F 998.2 in WNW 9.7 mph 22.5 mph 97 % 0.3 in
23:30 0.5 °F -0.1 °F 998.5 in NW 6.4 mph 20.9 mph 96 % 0.0 in
23:45 0.5 °F -0.1 °F 998.5 in NW 6.4 mph 17.7 mph 96 % 0.0 in
Esan sääasema
Terveisin Weather Underground - 2.75 mb

Alkuperäinen skripti  Jim McMurry - jmcmurry@mwt.net Sovitettu myös templatelle  Wim van der Kuil - Leuven-Template.eu

Laitteet joita käytämme:

Sääasema
Davis VP2

Sääasemaohjelma
Cumulus

Sääaseman tietokone
Asus EeePC

Palveluntarjoaja
Suncomet

Davis VP2

Cumulus

Asus EeePC

Suncomet